ROAH R M0030
ILS Z RWY36L LDG RWY 36L DEP RWY 36R DEP FREQ 119.1 335.8 M 170030Z 04008KT 8KM -RA FEW007ST SCT015CU OVC050SC 20/19 Q1013/A2993= Q/TWO NINE NINE THREE STP

TAF ROAH 162306Z 1700/1806 03011KT 9999 FEW008 BKN015 BKN045
TEMPO 1700/1702 4000 RA FEW005 BKN008 BKN013
TEMPO 1702/1705 FEW005 BKN008 BKN013